KAPC/APC METAR and TAF weather

Enter ICAO airport designator
Station Type Date Time Source
KAPC METAR 2022/01/26 08:28 UTC NOAA

KAPC 260828Z AUTO 09003KT 2 1/2SM BR SCT011 03/02 A3010 RMK AO2 T00280022


Station Type Date Time Source
KAPC Decoded METAR 2022/01/26 08:28 UTC NOAA

NAPA COUNTY AIRPORT, CA, United States (KAPC) 38-12N 122-17W 13M
Jan 26, 2022 - 03:28 AM EST / 2022.01.26 0828 UTC
Wind: from the E (090 degrees) at 3 MPH (3 KT):0
Visibility: 2 1/2 mile(s):0
Sky conditions: partly cloudy
Weather: mist
Temperature: 37.0 F (2.8 C)
Dew Point: 36.0 F (2.2 C)
Relative Humidity: 95%
Pressure (altimeter): 30.1 in. Hg (1019 hPa)
ob: KAPC 260828Z AUTO 09003KT 2 1/2SM BR SCT011 03/02 A3010 RMK AO2 T00280022
cycle: 8

Station Type Date Time Source
KAPC TAF 2022/01/26 07:30 UTC NOAA

TAF
AMD KAPC 260728Z 2607/2706 02003KT 1/2SM FG VV005
FM261200 00000KT 3SM BR SCT003
FM261600 VRB04KT P6SM SKC
FM261800 09010KT P6SM SKC
FM270500 03005KT P6SM SKC

Example: see airport list